createdAt,value
2018-01-01T00:00:49.030Z,7.6
2018-01-01T00:01:50.722Z,7.7
2018-01-01T00:02:52.475Z,7.6
2018-01-01T00:03:54.281Z,7.5
2018-01-01T00:04:56.073Z,7.5
2018-01-01T00:05:57.863Z,7.5
2018-01-01T00:06:59.677Z,7.5
2018-01-01T00:08:01.615Z,7.4
2018-01-01T00:09:03.649Z,7.4
2018-01-01T00:10:05.505Z,7.4
2018-01-01T00:11:07.457Z,7.4
2018-01-01T00:12:09.347Z,7.4
2018-01-01T00:13:11.226Z,7.4
2018-01-01T00:14:13.270Z,7.4
2018-01-01T00:15:15.394Z,7.4
2018-01-01T00:16:17.440Z,7.3
2018-01-01T00:17:19.559Z,7.4
2018-01-01T00:18:21.725Z,7.5
2018-01-01T00:19:23.722Z,7.4
2018-01-01T00:20:33.295Z,7.4
2018-01-01T00:21:34.317Z,7.4
2018-01-01T00:22:36.424Z,7.5
2018-01-01T00:23:41.715Z,7.5
2018-01-01T00:24:44.190Z,7.5
2018-01-01T00:25:46.944Z,7.5
2018-01-01T00:26:48.980Z,7.5
2018-01-01T00:27:50.941Z,7.5
2018-01-01T00:28:56.993Z,7.4
2018-01-01T00:29:58.993Z,7.4
2018-01-01T00:31:00.835Z,7.2
2018-01-01T00:32:02.624Z,7.2
2018-01-01T00:33:04.369Z,7.1
2018-01-01T00:34:06.308Z,7.1
2018-01-01T00:35:08.030Z,7.1
2018-01-01T00:36:09.847Z,7.2
2018-01-01T00:37:11.676Z,7.2
2018-01-01T00:38:14.454Z,7.2
2018-01-01T00:39:16.214Z,7.2
2018-01-01T00:40:18.116Z,7.2
2018-01-01T00:41:20.658Z,7.2
2018-01-01T00:42:23.125Z,7.2
2018-01-01T00:43:25.580Z,7.2
2018-01-01T00:44:27.630Z,7.2
2018-01-01T00:45:29.731Z,7.2
2018-01-01T00:46:31.907Z,7.2
2018-01-01T00:47:33.872Z,7.2
2018-01-01T00:48:35.884Z,7.1
2018-01-01T00:49:38.134Z,7.1
2018-01-01T00:50:40.383Z,7.1
2018-01-01T00:51:42.496Z,7.0
2018-01-01T00:52:44.553Z,7.1
2018-01-01T00:53:46.776Z,7.1
2018-01-01T00:54:49.052Z,7.0
2018-01-01T00:55:51.198Z,7.1
2018-01-01T00:56:54.021Z,7.2
2018-01-01T00:57:56.296Z,7.1
2018-01-01T00:58:58.831Z,7.1
2018-01-01T01:00:01.247Z,7.1
2018-01-01T01:01:08.954Z,7.2
2018-01-01T01:02:11.631Z,7.1
2018-01-01T01:03:13.820Z,7.2
2018-01-01T01:04:16.238Z,7.2
2018-01-01T01:05:18.887Z,7.2
2018-01-01T01:06:21.225Z,7.2
2018-01-01T01:07:23.361Z,7.4
2018-01-01T01:08:25.626Z,7.3
2018-01-01T01:09:27.691Z,7.1
2018-01-01T01:10:29.709Z,6.9
2018-01-01T01:11:38.097Z,6.8
2018-01-01T01:12:40.298Z,6.7
2018-01-01T01:14:09.011Z,6.6
2018-01-01T01:15:11.746Z,6.5
2018-01-01T01:16:14.272Z,6.4
2018-01-01T01:17:17.049Z,6.2
2018-01-01T01:18:19.493Z,6.2
2018-01-01T01:19:25.156Z,6.1
2018-01-01T01:20:26.567Z,6.1
2018-01-01T01:21:28.974Z,6.1
2018-01-01T01:22:31.121Z,6.1
2018-01-01T01:23:33.463Z,6.0
2018-01-01T01:24:35.831Z,6.0
2018-01-01T01:25:38.131Z,6.0
2018-01-01T01:26:40.401Z,6.0
2018-01-01T01:27:42.779Z,5.9
2018-01-01T01:28:44.934Z,5.8
2018-01-01T01:29:47.179Z,5.9
2018-01-01T01:30:49.462Z,5.8
2018-01-01T01:31:51.658Z,5.8
2018-01-01T01:32:53.834Z,5.8
2018-01-01T01:33:56.237Z,5.8
2018-01-01T01:34:58.223Z,5.8
2018-01-01T01:36:00.346Z,5.8
2018-01-01T01:37:02.280Z,5.7
2018-01-01T01:38:04.530Z,5.7
2018-01-01T01:39:06.610Z,5.7
2018-01-01T01:40:08.565Z,5.7
2018-01-01T01:41:10.605Z,5.6
2018-01-01T01:42:12.683Z,5.6
2018-01-01T01:43:14.709Z,5.7
2018-01-01T01:44:16.696Z,5.7
2018-01-01T01:45:18.837Z,5.7
2018-01-01T01:46:20.853Z,5.7
2018-01-01T01:47:22.904Z,5.8
2018-01-01T01:48:25.035Z,5.7
2018-01-01T01:49:27.165Z,5.6
2018-01-01T01:50:29.235Z,5.7
2018-01-01T01:51:31.211Z,5.6
2018-01-01T01:52:33.143Z,5.7
2018-01-01T01:53:35.143Z,5.7
2018-01-01T01:54:37.109Z,5.7
2018-01-01T01:55:39.165Z,5.5
2018-01-01T01:56:41.500Z,5.6
2018-01-01T01:57:43.510Z,5.5
2018-01-01T01:58:45.908Z,5.6
2018-01-01T01:59:48.069Z,5.5
2018-01-01T02:00:50.353Z,5.5
2018-01-01T02:01:52.549Z,5.5
2018-01-01T02:02:55.253Z,5.5
2018-01-01T02:03:57.995Z,5.6
2018-01-01T02:05:01.063Z,5.5
2018-01-01T02:08:10.832Z,5.5
2018-01-01T02:10:23.042Z,5.5
2018-01-01T02:11:30.407Z,5.5
2018-01-01T02:12:33.198Z,5.4
2018-01-01T02:13:46.445Z,5.4
2018-01-01T03:01:09.018Z,5.2
2018-01-01T03:02:13.232Z,5.1
2018-01-01T03:03:15.988Z,5.1
2018-01-01T03:04:18.672Z,5.3
2018-01-01T03:05:22.611Z,5.2
2018-01-01T03:06:26.885Z,5.3
2018-01-01T03:07:29.981Z,5.3
2018-01-01T03:08:32.867Z,5.2
2018-01-01T03:09:35.601Z,5.3
2018-01-01T03:10:37.991Z,5.3
2018-01-01T03:11:40.337Z,5.3
2018-01-01T03:12:42.996Z,5.3
2018-01-01T03:13:46.155Z,5.2
2018-01-01T03:14:48.950Z,5.2
2018-01-01T03:15:51.522Z,5.2
2018-01-01T03:16:54.334Z,5.2
2018-01-01T03:17:57.256Z,5.1
2018-01-01T03:18:59.955Z,5.0
2018-01-01T03:20:02.825Z,5.0
2018-01-01T03:21:05.380Z,5.1
2018-01-01T03:22:08.690Z,5.0
2018-01-01T03:23:12.105Z,4.9
2018-01-01T03:24:15.496Z,4.8
2018-01-01T03:25:18.621Z,4.8
2018-01-01T03:26:21.830Z,4.8
2018-01-01T03:27:25.095Z,4.8
2018-01-01T03:28:27.996Z,4.9
2018-01-01T03:29:30.852Z,4.8
2018-01-01T03:30:33.529Z,4.9
2018-01-01T03:31:37.616Z,4.8
2018-01-01T03:32:40.196Z,4.8
2018-01-01T03:33:43.568Z,4.8
2018-01-01T03:34:47.088Z,4.8
2018-01-01T03:35:50.726Z,4.8
2018-01-01T03:36:54.036Z,4.9
2018-01-01T03:37:57.419Z,4.9
2018-01-01T03:39:00.463Z,5.0
2018-01-01T03:40:03.880Z,5.0
2018-01-01T03:41:06.732Z,5.1
2018-01-01T03:42:10.119Z,4.9
2018-01-01T03:43:13.582Z,5.1
2018-01-01T03:44:16.730Z,5.2
2018-01-01T03:45:19.797Z,5.1
2018-01-01T03:46:23.981Z,5.2
2018-01-01T03:47:27.328Z,5.1
2018-01-01T03:48:30.559Z,5.1
2018-01-01T03:49:33.948Z,5.2
2018-01-01T03:50:37.242Z,5.2
2018-01-01T03:51:40.699Z,5.1
2018-01-01T03:52:44.194Z,5.2
2018-01-01T03:53:47.608Z,5.1
2018-01-01T03:54:51.626Z,5.2
2018-01-01T03:55:54.809Z,5.2
2018-01-01T03:56:58.000Z,5.3
2018-01-01T03:58:01.425Z,5.3
2018-01-01T03:59:04.780Z,5.3
2018-01-01T04:00:08.103Z,5.4
2018-01-01T04:01:10.983Z,5.3
2018-01-01T04:02:14.103Z,5.3
2018-01-01T04:03:17.118Z,5.4
2018-01-01T04:04:20.490Z,5.2
2018-01-01T04:05:23.841Z,5.1
2018-01-01T04:06:27.150Z,5.2
2018-01-01T04:07:30.480Z,5.2
2018-01-01T04:08:34.235Z,5.2
2018-01-01T04:09:37.675Z,5.1
2018-01-01T04:10:41.678Z,5.2
2018-01-01T04:11:45.257Z,5.1
2018-01-01T04:12:48.570Z,5.1
2018-01-01T04:13:52.312Z,5.1
2018-01-01T04:14:56.180Z,5.0
2018-01-01T04:15:59.392Z,4.9
2018-01-01T04:17:02.923Z,4.9
2018-01-01T04:18:06.427Z,4.8
2018-01-01T04:19:09.654Z,4.9
2018-01-01T04:20:14.747Z,4.9
2018-01-01T04:21:18.134Z,5.0
2018-01-01T04:22:21.431Z,5.0
2018-01-01T04:23:24.612Z,5.1
2018-01-01T04:24:27.687Z,5.1
2018-01-01T04:25:30.248Z,5.0
2018-01-01T04:26:32.909Z,5.2
2018-01-01T04:27:35.584Z,5.2
2018-01-01T04:28:38.427Z,5.3
2018-01-01T04:29:43.747Z,5.3
2018-01-01T04:30:46.442Z,5.3
2018-01-01T04:31:49.842Z,5.3
2018-01-01T04:32:52.903Z,5.4
2018-01-01T04:33:55.840Z,5.5
2018-01-01T04:34:59.162Z,5.6
2018-01-01T04:36:02.329Z,5.5
2018-01-01T04:37:05.267Z,5.4
2018-01-01T04:38:08.499Z,5.4
2018-01-01T04:39:11.432Z,5.4
2018-01-01T04:40:18.300Z,5.5
2018-01-01T04:41:21.356Z,5.5
2018-01-01T04:42:24.399Z,5.5
2018-01-01T04:43:28.569Z,5.6
2018-01-01T04:44:33.415Z,5.5
2018-01-01T04:45:38.344Z,5.5
2018-01-01T04:46:44.147Z,5.5
2018-01-01T04:47:46.532Z,5.5
2018-01-01T04:48:49.327Z,5.5
2018-01-01T04:49:52.437Z,5.5
2018-01-01T04:50:55.699Z,5.6
2018-01-01T04:51:58.702Z,5.5
2018-01-01T04:53:01.416Z,5.5
2018-01-01T04:54:04.701Z,5.5
2018-01-01T04:55:08.003Z,5.5
2018-01-01T04:56:12.349Z,5.5
2018-01-01T04:57:15.464Z,5.5
2018-01-01T04:58:18.626Z,5.5
2018-01-01T04:59:21.768Z,5.5
2018-01-01T05:00:24.788Z,5.5
2018-01-01T05:01:27.883Z,5.5
2018-01-01T05:02:30.951Z,5.5
2018-01-01T05:03:34.137Z,5.5
2018-01-01T05:04:37.020Z,5.5
2018-01-01T05:05:40.219Z,5.4
2018-01-01T05:06:43.456Z,5.3
2018-01-01T05:07:48.755Z,5.3
2018-01-01T05:08:51.647Z,5.3
2018-01-01T05:09:56.102Z,5.3
2018-01-01T05:11:00.330Z,5.3
2018-01-01T05:12:03.633Z,5.3
2018-01-01T05:13:07.301Z,5.3
2018-01-01T05:14:10.611Z,5.2
2018-01-01T05:15:13.513Z,5.2
2018-01-01T05:16:16.350Z,5.2
2018-01-01T05:17:19.103Z,5.2
2018-01-01T05:18:23.938Z,5.1
2018-01-01T05:19:25.164Z,5.1
2018-01-01T05:20:27.701Z,5.2
2018-01-01T05:21:30.007Z,5.2
2018-01-01T05:22:32.389Z,5.2
2018-01-01T05:23:34.827Z,5.1
2018-01-01T05:24:37.293Z,5.2
2018-01-01T05:25:39.734Z,5.1
2018-01-01T05:26:42.364Z,5.2
2018-01-01T05:27:45.084Z,5.1
2018-01-01T05:28:47.725Z,5.2
2018-01-01T05:29:50.175Z,5.0
2018-01-01T05:30:52.671Z,5.1
2018-01-01T05:31:55.309Z,5.1
2018-01-01T05:32:57.720Z,5.1
2018-01-01T05:34:00.346Z,5.1
2018-01-01T05:35:02.820Z,5.1
2018-01-01T05:36:05.227Z,5.1
2018-01-01T05:37:07.764Z,5.0
2018-01-01T05:38:10.354Z,5.1
2018-01-01T05:39:12.975Z,5.1
2018-01-01T05:40:15.696Z,5.1
2018-01-01T05:41:18.327Z,5.0
2018-01-01T05:42:21.237Z,5.0
2018-01-01T05:43:23.925Z,5.0
2018-01-01T05:44:26.518Z,5.1
2018-01-01T05:45:29.156Z,5.0
2018-01-01T05:46:31.611Z,5.0
2018-01-01T05:47:34.260Z,5.0
2018-01-01T05:48:36.509Z,5.0
2018-01-01T05:49:39.010Z,4.9
2018-01-01T05:50:41.474Z,4.9
2018-01-01T05:51:44.230Z,4.9
2018-01-01T05:52:46.752Z,4.9
2018-01-01T05:53:49.338Z,4.9
2018-01-01T05:54:51.495Z,5.0
2018-01-01T05:55:54.228Z,4.9
2018-01-01T05:56:56.737Z,5.0
2018-01-01T05:57:59.197Z,5.0
2018-01-01T05:59:01.334Z,5.0
2018-01-01T06:00:03.809Z,5.0
2018-01-01T06:01:06.211Z,5.1
2018-01-01T06:02:08.626Z,5.1
2018-01-01T06:03:11.098Z,5.1
2018-01-01T06:04:13.739Z,5.0
2018-01-01T06:05:16.471Z,5.0
2018-01-01T06:06:19.210Z,5.0
2018-01-01T06:07:21.749Z,5.1
2018-01-01T06:08:24.266Z,5.0
2018-01-01T06:09:26.821Z,5.1
2018-01-01T06:10:29.451Z,5.1
2018-01-01T06:11:32.384Z,5.1
2018-01-01T06:12:35.443Z,5.1
2018-01-01T06:13:38.132Z,5.1
2018-01-01T06:14:41.608Z,5.1
2018-01-01T06:15:51.522Z,5.2
2018-01-01T06:17:03.368Z,5.1
2018-01-01T06:18:16.742Z,5.0
2018-01-01T06:19:29.595Z,4.9
2018-01-01T06:20:34.489Z,4.9
2018-01-01T06:21:39.282Z,4.9
2018-01-01T06:22:46.809Z,4.8
2018-01-01T06:23:51.873Z,4.8
2018-01-01T06:24:57.931Z,4.9
2018-01-01T06:26:03.347Z,5.0
2018-01-01T06:27:05.785Z,4.9
2018-01-01T06:28:09.321Z,5.0
2018-01-01T06:29:12.110Z,4.9
2018-01-01T06:30:15.053Z,5.0
2018-01-01T06:31:18.079Z,4.9
2018-01-01T06:32:20.686Z,4.8
2018-01-01T06:33:23.794Z,4.8
2018-01-01T06:34:26.476Z,4.8
2018-01-01T06:35:29.331Z,4.7
2018-01-01T06:36:31.918Z,4.8
2018-01-01T06:37:34.505Z,4.8
2018-01-01T06:38:37.077Z,4.8
2018-01-01T06:39:39.696Z,4.9
2018-01-01T06:40:42.265Z,4.8
2018-01-01T06:41:44.628Z,4.8
2018-01-01T06:42:46.958Z,4.9
2018-01-01T06:43:48.891Z,4.9
2018-01-01T06:44:51.032Z,4.8
2018-01-01T06:45:53.990Z,4.8
2018-01-01T06:46:56.688Z,4.7
2018-01-01T06:47:59.297Z,4.7
2018-01-01T06:49:01.817Z,4.9
2018-01-01T06:50:04.674Z,4.8
2018-01-01T06:51:07.437Z,4.8
2018-01-01T06:52:10.215Z,4.8
2018-01-01T06:53:13.687Z,4.8
2018-01-01T06:54:16.317Z,4.8
2018-01-01T06:55:18.923Z,4.8
2018-01-01T07:01:58.635Z,4.8
2018-01-01T07:03:01.596Z,4.8
2018-01-01T07:04:04.219Z,4.8
2018-01-01T07:05:06.889Z,4.8
2018-01-01T07:06:08.784Z,4.8
2018-01-01T07:07:10.718Z,4.8
2018-01-01T07:08:12.661Z,4.8
2018-01-01T07:09:15.095Z,4.7
2018-01-01T07:10:17.639Z,4.7
2018-01-01T07:11:20.220Z,4.8
2018-01-01T07:12:23.018Z,4.7
2018-01-01T07:13:25.621Z,4.8
2018-01-01T07:14:28.320Z,4.7
2018-01-01T07:15:30.901Z,4.7
2018-01-01T07:16:33.457Z,4.7
2018-01-01T07:17:35.902Z,4.7
2018-01-01T07:18:38.338Z,4.6
2018-01-01T07:19:40.979Z,4.5
2018-01-01T07:20:43.688Z,4.5
2018-01-01T07:21:46.094Z,4.6
2018-01-01T07:22:48.520Z,4.6
2018-01-01T07:23:51.277Z,4.6
2018-01-01T07:24:53.926Z,4.7
2018-01-01T07:25:56.442Z,4.7
2018-01-01T07:26:58.866Z,4.7
2018-01-01T07:28:01.522Z,4.8
2018-01-01T07:29:03.820Z,4.8
2018-01-01T07:30:06.294Z,4.8
2018-01-01T07:31:08.692Z,4.8
2018-01-01T07:32:11.026Z,4.7
2018-01-01T07:33:13.511Z,4.8
2018-01-01T07:34:16.016Z,4.8
2018-01-01T07:35:18.727Z,4.7
2018-01-01T07:36:21.475Z,4.7
2018-01-01T07:37:24.195Z,4.7
2018-01-01T07:38:27.014Z,4.7
2018-01-01T07:39:29.522Z,4.7
2018-01-01T07:40:32.279Z,4.7
2018-01-01T07:41:35.046Z,4.7
2018-01-01T07:42:37.744Z,4.7
2018-01-01T07:43:40.332Z,4.7
2018-01-01T07:44:42.882Z,4.6
2018-01-01T07:45:45.415Z,4.7
2018-01-01T07:46:48.057Z,4.7
2018-01-01T07:47:50.395Z,4.7
2018-01-01T07:48:53.064Z,4.8
2018-01-01T07:49:55.571Z,4.7
2018-01-01T07:50:58.098Z,4.8
2018-01-01T07:52:00.549Z,4.8
2018-01-01T07:53:02.993Z,4.8
2018-01-01T07:54:05.491Z,4.9
2018-01-01T07:55:07.863Z,4.9
2018-01-01T07:56:10.672Z,4.8
2018-01-01T07:57:13.320Z,4.9
2018-01-01T07:58:15.838Z,4.9
2018-01-01T07:59:18.509Z,5.0
2018-01-01T08:00:21.073Z,5.0
2018-01-01T08:01:23.686Z,5.0
2018-01-01T08:02:26.360Z,4.9
2018-01-01T08:03:28.804Z,5.0
2018-01-01T08:04:31.436Z,5.0
2018-01-01T08:05:34.320Z,5.0
2018-01-01T08:06:36.807Z,5.0
2018-01-01T08:07:39.365Z,5.0
2018-01-01T08:08:42.026Z,5.1
2018-01-01T08:09:44.523Z,5.1
2018-01-01T08:10:47.076Z,5.1
2018-01-01T08:11:49.693Z,5.1
2018-01-01T08:12:52.281Z,5.1
2018-01-01T08:13:54.847Z,5.1
2018-01-01T08:14:57.448Z,5.1
2018-01-01T08:16:00.032Z,5.2
2018-01-01T08:17:02.513Z,5.1
2018-01-01T08:18:05.038Z,5.1
2018-01-01T08:19:07.838Z,5.2
2018-01-01T08:20:10.345Z,5.1
2018-01-01T08:21:13.148Z,5.2
2018-01-01T08:22:15.455Z,5.2
2018-01-01T08:23:17.877Z,5.2
2018-01-01T08:24:20.615Z,5.2
2018-01-01T08:25:23.093Z,5.1
2018-01-01T08:26:25.736Z,5.1
2018-01-01T08:27:28.341Z,5.2
2018-01-01T08:28:31.005Z,5.2
2018-01-01T08:29:33.498Z,5.1
2018-01-01T08:30:35.965Z,5.3
2018-01-01T08:31:38.642Z,5.2
2018-01-01T08:32:41.222Z,5.2
2018-01-01T08:33:43.765Z,5.4
2018-01-01T08:34:46.530Z,5.3
2018-01-01T08:35:49.230Z,5.4
2018-01-01T08:36:51.799Z,5.4
2018-01-01T08:37:54.351Z,5.4
2018-01-01T08:38:57.046Z,5.4
2018-01-01T08:39:59.631Z,5.4
2018-01-01T08:41:02.206Z,5.4
2018-01-01T08:42:05.202Z,5.3
2018-01-01T08:43:07.895Z,5.4
2018-01-01T08:44:10.375Z,5.3
2018-01-01T08:45:12.855Z,5.3
2018-01-01T08:46:15.597Z,5.3
2018-01-01T08:47:18.214Z,5.3
2018-01-01T08:48:20.781Z,5.3
2018-01-01T08:49:23.419Z,5.3
2018-01-01T08:50:26.167Z,5.3
2018-01-01T08:51:29.139Z,5.3
2018-01-01T08:52:31.682Z,5.2
2018-01-01T08:53:34.057Z,5.3
2018-01-01T08:54:36.616Z,5.3
2018-01-01T08:55:39.234Z,5.3
2018-01-01T08:56:41.686Z,5.3
2018-01-01T08:57:44.360Z,5.4
2018-01-01T08:58:47.029Z,5.4
2018-01-01T08:59:49.551Z,5.3
2018-01-01T09:00:52.143Z,5.3
2018-01-01T09:01:54.863Z,5.4
2018-01-01T09:02:57.543Z,5.4
2018-01-01T09:04:00.272Z,5.4
2018-01-01T09:05:02.895Z,5.4
2018-01-01T09:06:05.687Z,5.3
2018-01-01T09:07:08.334Z,5.4
2018-01-01T09:08:10.905Z,5.3
2018-01-01T09:09:13.603Z,5.4
2018-01-01T09:10:16.101Z,5.5
2018-01-01T09:11:18.600Z,5.6
2018-01-01T09:12:21.397Z,5.7
2018-01-01T09:13:24.244Z,5.7
2018-01-01T09:14:27.134Z,5.7
2018-01-01T09:15:29.560Z,5.7
2018-01-01T09:16:32.621Z,5.6
2018-01-01T09:17:35.314Z,5.7
2018-01-01T09:18:38.056Z,5.7
2018-01-01T09:19:40.488Z,5.7
2018-01-01T09:20:42.992Z,5.6
2018-01-01T09:21:45.698Z,5.6
2018-01-01T09:22:48.334Z,5.6
2018-01-01T09:23:50.826Z,5.6
2018-01-01T09:24:53.589Z,5.7
2018-01-01T09:25:56.236Z,5.7
2018-01-01T09:26:58.834Z,5.7
2018-01-01T09:28:01.595Z,5.5
2018-01-01T09:29:04.413Z,5.5
2018-01-01T09:30:07.422Z,5.4
2018-01-01T09:31:10.350Z,5.4
2018-01-01T09:32:12.908Z,5.5
2018-01-01T09:33:15.695Z,5.2
2018-01-01T09:34:18.262Z,5.3
2018-01-01T09:35:20.750Z,5.3
2018-01-01T09:36:23.322Z,5.3
2018-01-01T09:37:25.950Z,5.4
2018-01-01T09:38:28.457Z,5.3
2018-01-01T09:39:30.972Z,5.3
2018-01-01T09:40:33.918Z,5.4
2018-01-01T09:41:35.893Z,5.6
2018-01-01T09:42:37.699Z,5.9
2018-01-01T09:43:39.464Z,5.9
2018-01-01T09:44:41.180Z,6.0
2018-01-01T09:45:42.951Z,6.1
2018-01-01T09:46:44.713Z,6.1
2018-01-01T09:47:46.479Z,6.1
2018-01-01T09:48:48.218Z,6.1
2018-01-01T09:49:49.980Z,6.1
2018-01-01T09:50:51.817Z,6.1
2018-01-01T09:51:53.575Z,6.1
2018-01-01T09:52:55.263Z,6.2
2018-01-01T09:53:56.967Z,6.3
2018-01-01T09:54:58.654Z,6.2
2018-01-01T09:56:00.333Z,6.1
2018-01-01T09:57:02.065Z,6.2
2018-01-01T09:58:03.758Z,6.4
2018-01-01T09:59:05.465Z,6.6
2018-01-01T10:00:07.169Z,7.0
2018-01-01T10:01:08.896Z,7.2
2018-01-01T10:02:10.604Z,7.5
2018-01-01T10:03:12.463Z,7.6
2018-01-01T10:04:19.635Z,7.6
2018-01-01T10:05:21.176Z,7.7
2018-01-01T10:06:22.893Z,7.8
2018-01-01T10:07:24.621Z,7.9
2018-01-01T10:08:27.046Z,7.9
2018-01-01T10:09:29.336Z,8.1
2018-01-01T10:10:31.148Z,8.1
2018-01-01T10:11:32.925Z,8.2
2018-01-01T10:12:34.626Z,8.4
2018-01-01T10:13:36.487Z,8.7
2018-01-01T10:14:39.526Z,9.1
2018-01-01T10:15:41.282Z,9.5
2018-01-01T10:16:43.010Z,9.7
2018-01-01T10:17:44.744Z,9.8
2018-01-01T10:18:46.748Z,9.5
2018-01-01T10:19:49.918Z,9.4
2018-01-01T10:20:51.693Z,9.2
2018-01-01T10:21:53.430Z,9.0
2018-01-01T10:22:55.205Z,8.9
2018-01-01T10:23:59.212Z,8.6
2018-01-01T10:25:01.117Z,8.1
2018-01-01T10:26:02.873Z,7.7
2018-01-01T10:27:04.619Z,7.5
2018-01-01T10:28:06.532Z,7.2
2018-01-01T10:29:10.244Z,7.0
2018-01-01T10:30:11.854Z,6.9
2018-01-01T10:31:13.672Z,6.8
2018-01-01T10:32:15.402Z,6.7
2018-01-01T10:33:17.193Z,6.8
2018-01-01T10:34:20.524Z,6.8
2018-01-01T10:35:22.274Z,6.8
2018-01-01T10:36:24.010Z,6.7
2018-01-01T10:37:25.774Z,6.6
2018-01-01T10:38:29.137Z,6.7
2018-01-01T10:39:30.882Z,6.8
2018-01-01T10:40:32.596Z,6.8
2018-01-01T10:41:34.310Z,6.8
2018-01-01T10:42:36.034Z,6.8
2018-01-01T10:43:37.905Z,6.9
2018-01-01T10:44:39.472Z,6.8
2018-01-01T10:45:43.038Z,6.8
2018-01-01T10:46:44.742Z,6.6
2018-01-01T10:47:46.509Z,6.7
2018-01-01T10:48:48.458Z,6.6
2018-01-01T10:49:50.184Z,6.6
2018-01-01T10:50:54.588Z,6.5
2018-01-01T10:51:56.543Z,6.4
2018-01-01T10:52:58.350Z,6.3
2018-01-01T10:54:02.526Z,6.2
2018-01-01T10:55:04.706Z,6.1
2018-01-01T11:01:33.628Z,6.1
2018-01-01T11:02:35.315Z,6.7
2018-01-01T11:03:37.124Z,7.2
2018-01-01T11:04:38.983Z,7.6
2018-01-01T11:05:41.316Z,8.0
2018-01-01T11:06:42.833Z,8.4
2018-01-01T11:07:44.488Z,8.4
2018-01-01T11:08:46.147Z,8.5
2018-01-01T11:09:47.810Z,8.4
2018-01-01T11:10:49.542Z,8.2
2018-01-01T11:11:51.201Z,8.0
2018-01-01T11:12:52.875Z,7.6
2018-01-01T11:13:54.549Z,7.2
2018-01-01T11:14:56.211Z,6.9
2018-01-01T11:15:57.885Z,6.7
2018-01-01T11:16:59.547Z,6.5
2018-01-01T11:18:01.238Z,6.3
2018-01-01T11:19:02.901Z,6.2
2018-01-01T11:20:04.561Z,6.1
2018-01-01T11:21:06.208Z,6.1
2018-01-01T11:22:07.863Z,6.1
2018-01-01T11:23:09.538Z,6.0
2018-01-01T11:24:11.199Z,5.9
2018-01-01T11:25:12.882Z,5.8
2018-01-01T11:26:14.553Z,5.7
2018-01-01T11:27:16.215Z,5.6
2018-01-01T11:28:17.878Z,5.5
2018-01-01T11:29:19.532Z,5.5
2018-01-01T11:30:21.194Z,5.4
2018-01-01T11:31:22.901Z,5.5
2018-01-01T11:32:24.595Z,5.6
2018-01-01T11:33:26.272Z,5.8
2018-01-01T11:34:28.073Z,5.8
2018-01-01T11:35:29.799Z,5.8
2018-01-01T11:36:31.465Z,5.8
2018-01-01T11:37:33.829Z,5.7
2018-01-01T11:38:36.278Z,5.6
2018-01-01T11:39:37.979Z,5.6
2018-01-01T11:40:39.639Z,5.5
2018-01-01T11:41:41.341Z,5.5
2018-01-01T11:42:42.983Z,5.5
2018-01-01T11:43:44.641Z,5.5
2018-01-01T11:44:46.342Z,5.4
2018-01-01T11:45:48.084Z,5.4
2018-01-01T11:46:49.731Z,5.5
2018-01-01T11:47:51.415Z,5.7
2018-01-01T11:48:55.142Z,6.1
2018-01-01T11:49:56.856Z,6.4
2018-01-01T11:50:58.694Z,6.8
2018-01-01T11:52:01.460Z,6.9
2018-01-01T11:53:03.979Z,6.8
2018-01-01T11:54:05.745Z,6.8
2018-01-01T11:55:07.489Z,6.9
2018-01-01T11:56:09.527Z,6.9
2018-01-01T11:57:11.310Z,6.9
2018-01-01T11:58:13.083Z,6.9
2018-01-01T11:59:14.911Z,6.8
2018-01-01T12:00:16.884Z,6.9
2018-01-01T12:01:19.356Z,6.7
2018-01-01T12:02:23.940Z,6.8
2018-01-01T12:03:25.558Z,7.0
2018-01-01T12:04:27.264Z,7.0
2018-01-01T12:05:30.768Z,7.0
2018-01-01T12:06:32.594Z,7.1
2018-01-01T12:07:34.407Z,7.0
2018-01-01T12:08:36.317Z,7.0
2018-01-01T12:09:38.078Z,7.1
2018-01-01T12:10:39.903Z,7.1
2018-01-01T12:11:41.635Z,7.1
2018-01-01T12:12:43.414Z,7.0
2018-01-01T12:13:45.177Z,6.9
2018-01-01T12:14:46.970Z,6.9
2018-01-01T12:15:48.708Z,6.8
2018-01-01T12:16:50.422Z,6.8
2018-01-01T12:17:52.256Z,6.7
2018-01-01T12:18:53.944Z,6.7
2018-01-01T12:19:55.748Z,6.7
2018-01-01T12:20:57.429Z,6.9
2018-01-01T12:21:59.234Z,6.8
2018-01-01T12:23:01.083Z,6.8
2018-01-01T12:24:02.802Z,6.7
2018-01-01T12:25:04.586Z,6.7
2018-01-01T12:26:06.361Z,6.6
2018-01-01T12:27:08.114Z,6.7
2018-01-01T12:28:10.155Z,6.6
2018-01-01T12:29:11.904Z,6.6
2018-01-01T12:30:13.651Z,6.5
2018-01-01T12:31:15.657Z,6.5
2018-01-01T12:32:17.410Z,6.5
2018-01-01T12:33:19.148Z,6.3
2018-01-01T12:34:21.981Z,6.4
2018-01-01T12:35:23.764Z,6.1
2018-01-01T12:36:27.691Z,6.1
2018-01-01T12:37:29.448Z,6.1
2018-01-01T12:38:31.338Z,6.1
2018-01-01T12:39:33.094Z,6.0
2018-01-01T12:40:34.824Z,6.2
2018-01-01T12:41:37.848Z,6.1
2018-01-01T12:42:40.229Z,6.1
2018-01-01T12:43:42.014Z,6.1
2018-01-01T12:44:43.758Z,6.2
2018-01-01T12:45:45.517Z,6.1
2018-01-01T12:46:47.358Z,6.1
2018-01-01T12:47:49.526Z,6.0
2018-01-01T12:48:51.255Z,6.1
2018-01-01T12:49:52.990Z,6.1
2018-01-01T12:50:54.734Z,6.2
2018-01-01T12:51:56.444Z,6.2
2018-01-01T12:52:58.200Z,6.3
2018-01-01T12:53:59.925Z,6.3
2018-01-01T12:55:01.692Z,6.5
2018-01-01T12:56:03.385Z,6.8
2018-01-01T12:57:05.142Z,7.0
2018-01-01T12:58:06.982Z,7.4
2018-01-01T12:59:08.703Z,7.7
2018-01-01T13:00:10.462Z,7.8
2018-01-01T13:01:12.188Z,7.8
2018-01-01T13:02:13.984Z,7.7
2018-01-01T13:03:16.180Z,7.7
2018-01-01T13:04:17.922Z,7.6
2018-01-01T13:05:19.648Z,7.4
2018-01-01T13:06:21.321Z,7.2
2018-01-01T13:07:23.015Z,6.9
2018-01-01T13:08:24.686Z,6.8
2018-01-01T13:09:26.392Z,6.8
2018-01-01T13:10:28.217Z,6.6
2018-01-01T13:11:30.343Z,6.6
2018-01-01T13:12:32.101Z,6.6
2018-01-01T13:13:33.896Z,6.5
2018-01-01T13:14:35.652Z,6.5
2018-01-01T13:15:37.433Z,6.5
2018-01-01T13:16:39.303Z,6.4
2018-01-01T13:17:41.019Z,6.4
2018-01-01T13:18:42.814Z,6.4
2018-01-01T13:19:44.537Z,6.5
2018-01-01T13:20:46.284Z,6.5
2018-01-01T13:21:48.012Z,6.4
2018-01-01T13:22:49.763Z,6.4
2018-01-01T13:23:51.539Z,6.4
2018-01-01T13:24:53.266Z,6.4
2018-01-01T13:25:54.967Z,6.5
2018-01-01T13:26:56.732Z,6.5
2018-01-01T13:27:58.461Z,6.5
2018-01-01T13:29:00.209Z,6.6
2018-01-01T13:30:01.974Z,6.5
2018-01-01T13:31:03.737Z,6.6
2018-01-01T13:32:06.296Z,6.4
2018-01-01T13:33:08.029Z,6.3
2018-01-01T13:34:09.759Z,6.2
2018-01-01T13:35:11.557Z,6.1
2018-01-01T13:36:13.310Z,6.0
2018-01-01T13:37:15.029Z,6.0
2018-01-01T13:38:16.769Z,6.0
2018-01-01T13:39:18.519Z,6.0
2018-01-01T13:40:20.248Z,6.0
2018-01-01T13:41:21.978Z,6.0
2018-01-01T13:42:23.716Z,5.8
2018-01-01T13:43:25.427Z,5.8
2018-01-01T13:44:27.452Z,5.8
2018-01-01T13:45:29.179Z,5.8
2018-01-01T13:46:31.102Z,5.7
2018-01-01T13:47:32.832Z,5.8
2018-01-01T13:48:34.571Z,5.8
2018-01-01T13:49:36.320Z,5.9
2018-01-01T13:50:38.106Z,5.7
2018-01-01T13:51:39.907Z,5.8
2018-01-01T13:52:41.652Z,5.6
2018-01-01T13:53:43.446Z,5.6
2018-01-01T13:54:45.196Z,5.6
2018-01-01T13:55:46.931Z,5.6
2018-01-01T13:56:48.653Z,5.6
2018-01-01T13:57:50.422Z,5.7
2018-01-01T13:58:52.181Z,5.7
2018-01-01T13:59:53.887Z,5.6
2018-01-01T14:00:55.652Z,5.6
2018-01-01T14:01:57.997Z,5.7
2018-01-01T14:02:59.765Z,5.7
2018-01-01T14:04:01.527Z,5.8
2018-01-01T14:05:03.326Z,5.7
2018-01-01T14:06:05.247Z,5.8
2018-01-01T14:07:07.044Z,5.8
2018-01-01T14:08:08.851Z,5.8
2018-01-01T14:09:10.553Z,5.8
2018-01-01T14:10:12.337Z,5.9
2018-01-01T14:11:14.128Z,5.8
2018-01-01T14:12:15.916Z,5.8
2018-01-01T14:13:17.679Z,5.8
2018-01-01T14:14:19.393Z,5.8
2018-01-01T14:15:21.138Z,5.8
2018-01-01T14:16:22.911Z,5.7
2018-01-01T14:17:24.713Z,5.7
2018-01-01T14:18:26.419Z,5.8
2018-01-01T14:19:28.148Z,5.7
2018-01-01T14:20:29.841Z,5.8
2018-01-01T14:21:31.618Z,5.8
2018-01-01T14:22:33.330Z,5.7
2018-01-01T14:23:35.076Z,5.8
2018-01-01T14:24:36.806Z,5.7
2018-01-01T14:25:40.143Z,5.7
2018-01-01T14:26:41.933Z,5.7
2018-01-01T14:27:43.646Z,5.8
2018-01-01T14:28:45.380Z,5.8
2018-01-01T14:29:47.119Z,5.7
2018-01-01T14:30:49.449Z,5.8
2018-01-01T14:31:51.277Z,5.8
2018-01-01T14:32:53.004Z,5.8
2018-01-01T14:33:54.652Z,5.7
2018-01-01T14:34:56.346Z,5.7
2018-01-01T14:36:05.068Z,5.6
2018-01-01T14:37:06.811Z,5.7
2018-01-01T14:38:08.530Z,5.7
2018-01-01T14:39:10.306Z,5.6
2018-01-01T14:40:12.049Z,5.6
2018-01-01T14:41:13.795Z,5.7
2018-01-01T14:42:15.547Z,5.7
2018-01-01T14:43:17.415Z,5.7
2018-01-01T14:44:19.138Z,5.6
2018-01-01T14:45:20.994Z,5.6
2018-01-01T14:46:22.729Z,5.6
2018-01-01T14:47:24.552Z,5.6
2018-01-01T14:48:26.291Z,5.6
2018-01-01T14:49:28.055Z,5.5
2018-01-01T14:50:29.783Z,5.5
2018-01-01T14:51:31.589Z,5.5
2018-01-01T14:52:33.319Z,5.5
2018-01-01T14:53:35.059Z,5.5
2018-01-01T14:54:36.812Z,5.5
2018-01-01T15:01:14.141Z,5.5
2018-01-01T15:02:15.805Z,5.6
2018-01-01T15:03:17.465Z,5.5
2018-01-01T15:04:19.114Z,5.5
2018-01-01T15:05:20.771Z,5.5
2018-01-01T15:06:22.429Z,5.5
2018-01-01T15:07:24.088Z,5.4
2018-01-01T15:08:25.739Z,5.4
2018-01-01T15:09:27.400Z,5.5
2018-01-01T15:10:29.049Z,5.5
2018-01-01T15:11:30.702Z,5.5
2018-01-01T15:12:32.361Z,5.5
2018-01-01T15:13:34.051Z,5.5
2018-01-01T15:14:35.671Z,5.5
2018-01-01T15:15:37.320Z,5.6
2018-01-01T15:16:39.024Z,5.5
2018-01-01T15:17:40.752Z,5.6
2018-01-01T15:18:42.979Z,5.6
2018-01-01T15:19:44.658Z,5.6
2018-01-01T15:20:46.348Z,5.5
2018-01-01T15:21:48.016Z,5.6
2018-01-01T15:22:49.668Z,5.5
2018-01-01T15:23:51.330Z,5.5
2018-01-01T15:24:52.982Z,5.6
2018-01-01T15:25:54.632Z,5.5
2018-01-01T15:26:56.293Z,5.5
2018-01-01T15:27:57.955Z,5.5